Tiempo atmosférico en la estación meteorológica de Bello, Teruel (1006 m.)



Fecha
DESCASC
Temp. máxima en grados centígrados (hora)
DESCASC
Temp. mínima en grados centígrados (hora)
DESCASC
Temp. media en grados centígrados
DESCASC
Racha de viento máxima en m/sg (hora)
DESCASC
Velocidad máxima media en intervalos de 10 minutos(hora)
DESCASC
Precipitaciones diarias en mm
DESCASC
Precipitaciones de 00:00 a 06:00 en mm
DESCASC
Precipitaciones de 06:00 a 12:00 en mm
DESCASC
Precipitaciones de 12:00 a 18:00 en mm
DESCASC
Precipitaciones de 18:00 a 24:00 en mm
DESCASC
23-05-2018 -- (--) -- (--) -- -- (--) -- (--) -- 0 0 3 --
22-05-2018 21.8 (16:40) 7.1 (07:00) 14.4 8.33 (20:20) 5.28 (18:20) 0 0 0 0 0
21-05-2018 18.9 (14:20) 10.4 (05:50) 14.6 10.28 (17:30) 6.67 (17:30) 0.6 0.6 0 0 0
20-05-2018 19.3 (16:10) 5.5 (00:00) 12.4 8.06 (17:10) 5.56 (17:30) 14.2 0 0 12.4 1.8
19-05-2018 19.3 (18:30) 6 (06:50) 12.6 9.44 (16:40) 5.83 (16:50) 1.4 0 0 1.4 0
18-05-2018 17.7 (17:10) 9.8 (00:00) 13.8 10.28 (17:30) 6.39 (00:30) 1.6 1.6 0 0 0
17-05-2018 22 (15:10) 4.5 (00:00) 13.3 10.83 (18:30) 8.33 (18:20) 0.6 0 0 0 0.6
16-05-2018 20.4 (15:50) 1.9 (00:00) 11.1 10.56 (17:00) 6.39 (17:00) 0 0 0 0 0
15-05-2018 16.5 (18:10) 2.5 (00:00) 9.5 9.72 (11:00) 6.11 (20:50) 0 0 0 0 0
14-05-2018 14.9 (16:10) 2.3 (00:00) 8.6 13.06 (17:00) 8.06 (18:40) 0 0 0 0 0
13-05-2018 13.8 (17:20) -0.1 (00:00) 6.9 12.22 (19:00) 7.5 (18:10) 0 0 0 0 0
12-05-2018 20.4 (14:40) 4.7 (00:00) 12.5 14.17 (19:00) 8.89 (19:00) 0 0 0 0 0
11-05-2018 23.7 (15:10) 3.9 (04:50) 13.8 9.72 (12:20) 5.28 (12:20) 0 0 0 0 0
10-05-2018 18.8 (16:40) 7.4 (00:00) 13.1 10 (18:30) 6.67 (18:40) 0 0 0 0 0
09-05-2018 22.2 (18:50) 6.5 (00:00) 14.4 10.83 (21:40) 7.5 (21:50) 0 0 0 0 0
08-05-2018 21.3 (15:50) 6.4 (00:00) 13.8 10.56 (16:20) 7.22 (16:30) 0 0 0 0 0
07-05-2018 19.5 (17:30) 6.2 (00:00) 12.8 13.33 (19:10) 8.33 (19:10) 1.9 0 0.4 1.2 0.3
06-05-2018 21.4 (17:10) 4.5 (07:00) 12.9 8.61 (18:10) 5.83 (19:40) 0 0 0 0 0
05-05-2018 19.8 (16:10) 2 (00:00) 10.9 8.89 (18:20) 5.83 (18:20) 0 0 0 0 0
04-05-2018 16.9 (17:10) 2 (00:00) 9.4 10 (10:40) 6.67 (10:40) 0 0 0 0 0
03-05-2018 12.5 (13:30) 4.5 (00:00) 8.5 11.94 (21:30) 8.33 (19:20) 0 0 0 0 0
02-05-2018 15.3 (16:50) -1.9 (-00:0) 6.7 12.5 (15:50) 7.5 (15:00) 0 0 0 0 0
01-05-2018 11.9 (17:20) 0.3 (00:50) 6.1 7.5 (13:20) 4.44 (18:30) 0 0 0 0 0
30-04-2018 10 (13:40) 1.4 (00:00) 5.7 14.72 (13:50) 8.06 (16:50) 1.6 0 0 0 1.6
29-04-2018 9.9 (16:30) 3 (00:00) 6.4 18.61 (13:20) 12.78 (13:20) 0 0 0 0 0
28-04-2018 19.2 (14:20) 5.5 (00:00) 12.4 14.44 (18:20) 8.89 (18:20) 0 0 0 0 0
27-04-2018 22.9 (16:00) 9.3 (00:00) 16.1 11.67 (15:20) 6.67 (15:20) 0.2 0 0 0.2 0
26-04-2018 22.5 (17:40) 4.9 (00:00) 13.7 9.72 (01:20) 7.22 (01:10) 0 0 0 0 0
25-04-2018 22.4 (16:20) 5.9 (00:00) 14.1 13.61 (21:30) 8.06 (21:30) 0 0 0 0 0

Gráficas

Temp. máximas Temp. mínimas Temp. medias Precipitaciones Rachas de viento máximas Velocidades máximas media en intervalos de 10 minutos

Datos horarios

Fecha y hora oficial Temperatura (ºC) Velocidad del viento (km/h) Dirección del viento Racha (km/h) Dirección de racha Precipitación (mm) Presión (hPa) Tendencia (hPa) Humedad (%)
2018-05-24 23:00:00 15.9 14 Sur 26 Sur 0 -- -- 57
2018-05-24 22:00:00 17.6 22 Sur 34 Sur 0 -- -- 50
2018-05-24 21:00:00 18.7 22 Sur 34 Sur 0 -- -- 52
2018-05-24 20:00:00 21 25 Sur 43 Sur 0 -- -- 51
2018-05-24 19:00:00 23 24 Sur 31 Sur 0 -- -- 44
2018-05-24 18:00:00 23.8 17 Sudeste 27 Sur 0 -- -- 35
2018-05-24 17:00:00 23.7 12 Sur 27 Sur 0 -- -- 39
2018-05-24 16:00:00 23.3 16 Sudeste 36 Sur 0 -- -- 43
2018-05-24 15:00:00 22.8 27 Sur 42 Sur 0 -- -- 45
2018-05-24 14:00:00 23.7 21 Sudeste 30 Sudeste 0 -- -- 40
2018-05-24 13:00:00 22.5 13 Sudeste 30 Sudeste 0 -- -- 46
2018-05-24 12:00:00 20.7 20 Sur -- -- -- -- -- 50
2018-05-24 11:00:00 -- -- -- -- -- -- -- -- --
2018-05-24 10:00:00 -- -- -- -- -- -- -- -- --
2018-05-24 09:00:00 -- -- -- -- -- -- -- -- --
2018-05-24 08:00:00 -- -- -- -- -- -- -- -- --
2018-05-24 07:00:00 -- -- -- -- -- -- -- -- --
2018-05-24 06:00:00 -- -- -- -- -- -- -- -- --
2018-05-24 05:00:00 -- -- -- -- -- -- -- -- --
2018-05-24 04:00:00 -- -- -- -- -- -- -- -- --
2018-05-24 03:00:00 -- -- -- -- -- -- -- -- --
2018-05-24 02:00:00 -- -- -- -- -- -- -- -- --
2018-05-24 01:00:00 -- -- -- -- -- -- -- -- --
2018-05-24 00:00:00 -- -- -- -- -- -- -- -- --
2018-05-23 23:00:00 -- -- -- -- -- -- -- -- --
2018-05-23 22:00:00 -- -- -- -- -- -- -- -- --
2018-05-23 21:00:00 -- -- -- -- -- -- -- -- --
2018-05-23 20:00:00 -- -- -- -- -- -- -- -- --
2018-05-23 19:00:00 -- -- -- -- -- -- -- -- --
2018-05-23 18:00:00 20.7 14 Sudeste 24 Sudeste 0 -- -- 52
2018-05-23 17:00:00 19.6 14 Sudeste 20 Sudeste 0 -- -- 63
2018-05-23 16:00:00 18.5 14 Sudeste 40 Sur 3 -- -- 68
2018-05-23 15:00:00 22.1 8 Sur 15 Sudeste 0 -- -- 50
2018-05-23 14:00:00 20.5 8 Sudeste 14 Sudeste 0 -- -- 54
2018-05-23 13:00:00 20.3 6 Sudeste 16 Sudeste 0 -- -- 56
2018-05-23 12:00:00 19.2 8 Sudeste 13 Este 0 -- -- 62
2018-05-23 11:00:00 17.2 6 Sur 14 Sudeste 0 -- -- 70
2018-05-23 10:00:00 14.9 5 Este 8 Este 0 -- -- 83
2018-05-23 09:00:00 13.2 3 Sudoeste 5 Sudoeste 0 -- -- 93
2018-05-23 08:00:00 11.9 3 Sudoeste 10 Sudoeste 0 -- -- 95
2018-05-23 07:00:00 11.1 4 Oeste 8 Sudoeste 0 -- -- 95
2018-05-23 06:00:00 11.5 4 Este 9 Este 0 -- -- 95
2018-05-23 05:00:00 11.4 6 Este 9 Este 0 -- -- 95
2018-05-23 04:00:00 11.3 4 Norte 5 Oeste 0 -- -- 94
2018-05-23 03:00:00 10.6 4 Sudoeste 6 Sur 0 -- -- 93
2018-05-23 02:00:00 11.1 5 Oeste 7 Sur 0 -- -- 91
2018-05-23 01:00:00 12.8 0 Calma 7 Sudoeste 0 -- -- 88
2018-05-23 00:00:00 14.1 4 Sudoeste 9 Sudoeste 0 -- -- 84
2018-05-22 23:00:00 14.5 5 Este 9 Este 0 -- -- 82
2018-05-22 22:00:00 15.3 7 Sur 16 Sudoeste 0 -- -- 75
2018-05-22 21:00:00 15.8 10 Oeste 30 Oeste 0 -- -- 72
2018-05-22 20:00:00 18.6 12 Nordeste 23 Nordeste 0 -- -- 57
2018-05-22 19:00:00 20.3 16 Nordeste 27 Nordeste 0 -- -- 51
2018-05-22 18:00:00 20.1 11 Nordeste 22 Nordeste 0 -- -- 48
2018-05-22 17:00:00 20.8 11 Nordeste 23 Nordeste 0 -- -- 46
2018-05-22 16:00:00 20.7 9 Nordeste 21 Norte 0 -- -- 48
2018-05-22 15:00:00 20.2 7 Norte 19 Nordeste 0 -- -- 50
2018-05-22 14:00:00 19.2 8 Nordeste 18 Norte 0 -- -- 52
2018-05-22 13:00:00 17.9 4 Sur 13 Oeste 0 -- -- 60
2018-05-22 12:00:00 16.4 3 Sur 10 Sur 0 -- -- 68
2018-05-22 11:00:00 14.8 4 Sur 8 Sur 0 -- -- 73
2018-05-22 10:00:00 12.6 2 Sur 6 Este 0 -- -- 85
2018-05-22 09:00:00 11 0 Calma 5 Nordeste 0 -- -- 89
2018-05-22 08:00:00 9.4 3 Sudeste 6 Sur 0 -- -- 97
2018-05-22 07:00:00 7.1 4 Sur 5 Sur 0 -- -- 94
2018-05-22 06:00:00 7.8 0 Calma 10 Noroeste 0 -- -- 90
2018-05-22 05:00:00 9.7 6 Noroeste 13 Noroeste 0 -- -- 89
2018-05-22 04:00:00 9.7 3 Oeste 5 Oeste 0 -- -- 90
2018-05-22 03:00:00 10.1 2 Oeste 6 Norte 0 -- -- 91
2018-05-22 02:00:00 10.6 4 Noroeste 11 Norte 0 -- -- 91
2018-05-22 01:00:00 10.3 5 Oeste 8 Noroeste 0 -- -- 91
2018-05-22 00:00:00 11.5 3 Noroeste 9 Oeste 0 -- -- 86
2018-05-21 23:00:00 12.2 0 Calma 7 Sudoeste 0 -- -- 86
2018-05-21 22:00:00 12.5 3 Sudoeste 6 Sudoeste 0 -- -- 87
2018-05-21 21:00:00 13 6 Noroeste 19 Oeste 0 -- -- 77
2018-05-21 20:00:00 13.8 7 Oeste 20 Oeste 0 -- -- 70
2018-05-21 19:00:00 14 12 Oeste 35 Noroeste 0 -- -- 71
2018-05-21 18:00:00 15.1 24 Noroeste 37 Noroeste 0 -- -- 62
2018-05-21 17:00:00 15.2 15 Oeste 30 Oeste 0 -- -- 69
2018-05-21 16:00:00 16.6 14 Oeste 30 Oeste 0 -- -- 62
2018-05-21 15:00:00 17.1 23 Oeste 34 Sudoeste 0 -- -- 57
2018-05-21 14:00:00 18.3 10 Oeste 17 Oeste 0 -- -- 54
2018-05-21 13:00:00 17.6 6 Sur 16 Sudoeste 0 -- -- 59
2018-05-21 12:00:00 14.8 7 Sudeste 15 Sudeste 0 -- -- 73
2018-05-21 11:00:00 13.6 13 Sudeste 22 Sur 0 -- -- 81
2018-05-21 10:00:00 12.2 10 Sur 13 Sur 0 -- -- 85
2018-05-21 09:00:00 11.2 4 Sudoeste 6 Sur 0 -- -- 90
2018-05-21 08:00:00 10.6 4 Nordeste 6 Oeste 0 -- -- 94
2018-05-21 07:00:00 10.4 4 Oeste 5 Sudoeste 0 -- -- 92
2018-05-21 06:00:00 10.4 4 Sur 8 Sudeste 0 -- -- 92
2018-05-21 05:00:00 10.7 2 Sudeste 6 Oeste 0 -- -- 91
2018-05-21 04:00:00 10.8 4 Norte 7 Este 0.4 -- -- 89
2018-05-21 03:00:00 10.8 3 Este 10 Sur 0 -- -- 91
2018-05-21 02:00:00 11 2 Sudoeste 14 Sur 0.2 -- -- 88
2018-05-21 01:00:00 11.4 9 Sur 23 Sur 0 -- -- 86
2018-05-21 00:00:00 11.7 16 Sur 24 Sur 0 -- -- 85
2018-05-20 23:00:00 12 10 Sur 19 Sudoeste 0 -- -- 85
2018-05-20 22:00:00 11.9 13 Sudoeste 21 Sudoeste 0 -- -- 87
2018-05-20 21:00:00 12.1 9 Sudoeste 21 Sudoeste 0.2 -- -- 84
2018-05-20 20:00:00 12.1 8 Sur 15 Sudeste 1.2 -- -- 87
2018-05-20 19:00:00 11.9 10 Este 22 Norte 0.4 -- -- 84
2018-05-20 18:00:00 11.6 19 Norte 29 Noroeste -- -- -- 79
2018-05-20 17:00:00 16.7 15 Noroeste 29 Oeste 0 -- -- 59
2018-05-20 16:00:00 18.9 6 Nordeste 21 Nordeste 0 -- -- 49
2018-05-20 15:00:00 18.5 6 Noroeste 21 Noroeste 0 -- -- 51
2018-05-20 14:00:00 17.1 7 Oeste 22 Sudeste 0 -- -- 57
2018-05-20 13:00:00 16.8 14 Sudeste 23 Sudeste 0 -- -- 59
2018-05-20 12:00:00 16.1 7 Sudeste 14 Sudeste 0 -- -- 64
2018-05-20 11:00:00 14.3 9 Sudeste 15 Sudeste 0 -- -- 70
2018-05-20 10:00:00 13.2 9 Sur 17 Sudeste 0 -- -- 73
2018-05-20 09:00:00 11.3 9 Sur 14 Sur 0 -- -- 91
2018-05-20 08:00:00 8.2 0 Calma 7 Oeste 0 -- -- 98
2018-05-20 07:00:00 6.5 2 Sudoeste 8 Oeste 0 -- -- 96
2018-05-20 06:00:00 6.3 0 Calma 5 Noroeste 0 -- -- 93
2018-05-20 05:00:00 7.7 3 Noroeste 6 Oeste 0 -- -- 92
2018-05-20 04:00:00 9.4 4 Noroeste 6 Oeste 0 -- -- 91
2018-05-20 03:00:00 10.6 0 Calma 13 Este 0 -- -- 90
2018-05-20 02:00:00 11.6 5 Nordeste 10 Nordeste 0 -- -- 85
2018-05-20 01:00:00 12.6 3 Nordeste 17 Nordeste 0 -- -- 77
2018-05-20 00:00:00 12.9 7 Nordeste 10 Nordeste 0 -- -- 72
2018-05-19 23:00:00 13.4 5 Este 24 Este 0 -- -- 71
2018-05-19 22:00:00 13.7 6 Sudoeste 12 Sudoeste 0 -- -- 75
2018-05-19 21:00:00 14.8 3 Sudeste 16 Este 0 -- -- 67
2018-05-19 20:00:00 15.7 9 Este 19 Norte 0 -- -- 66
2018-05-19 19:00:00 16.8 14 Nordeste 22 Nordeste 0 -- -- 62
2018-05-19 18:00:00 18.9 5 Sudeste 25 Sudeste 0 -- -- 46
2018-05-19 17:00:00 17.6 17 Sudeste 34 Sudeste 0 -- -- 53
2018-05-19 16:00:00 16.4 4 Este 9 Nordeste 0 -- -- 59
2018-05-19 15:00:00 14.7 6 Oeste 26 Sudoeste 1.2 -- -- 71
2018-05-19 14:00:00 15.1 18 Sudeste 27 Sudeste 0.2 -- -- 73
2018-05-19 13:00:00 16.8 5 Sudeste 14 Este 0 -- -- 63
2018-05-19 12:00:00 16.7 5 Este 17 Este 0 -- -- 65
2018-05-19 11:00:00 15.6 9 Este 18 Este 0 -- -- 69
2018-05-19 10:00:00 13.8 2 Este 6 Norte 0 -- -- 79
2018-05-19 09:00:00 11.2 3 Sur 5 Sur 0 -- -- 92
2018-05-19 08:00:00 7.8 0 Calma 5 Sur 0 -- -- 97
2018-05-19 07:00:00 6.1 4 Sudoeste 9 Sudoeste 0 -- -- 95
2018-05-19 06:00:00 7.4 4 Oeste 7 Oeste 0 -- -- 96
2018-05-19 05:00:00 6.6 5 Sudoeste 11 Sudoeste 0 -- -- 94
2018-05-19 04:00:00 6.7 9 Oeste 12 Sudoeste 0 -- -- 94
2018-05-19 03:00:00 7.1 4 Sudoeste 11 Oeste 0 -- -- 93
2018-05-19 02:00:00 7.4 5 Sudoeste 13 Sudoeste 0 -- -- 92
2018-05-19 01:00:00 8.1 6 Sudoeste 8 Sudoeste 0 -- -- 91
2018-05-19 00:00:00 9.8 5 Sudoeste 6 Sudoeste 0 -- -- 86
2018-05-18 23:00:00 10.9 3 Sudeste 6 Norte 0 -- -- 83
2018-05-18 22:00:00 14 3 Norte 6 Norte 0 -- -- 73
2018-05-18 21:00:00 15.4 3 Norte 8 Oeste 0 -- -- 65
2018-05-18 20:00:00 16 5 Sudoeste 9 Sudoeste 0 -- -- 62
2018-05-18 19:00:00 15.9 6 Sur 25 Sur 0 -- -- 59
2018-05-18 18:00:00 16.9 15 Sudeste 37 Sur 0 -- -- 57
2018-05-18 17:00:00 17.6 13 Sur 24 Sudeste 0 -- -- 54
2018-05-18 16:00:00 15.9 15 Sudeste 21 Sudeste 0 -- -- 68
2018-05-18 15:00:00 15.8 5 Sudeste 12 Este 0 -- -- 62
2018-05-18 14:00:00 14.1 4 Nordeste 10 Nordeste 0 -- -- 76
2018-05-18 13:00:00 13.4 2 Oeste 9 Oeste 0 -- -- 81
2018-05-18 12:00:00 12.4 4 Sudoeste 11 Sudoeste 0 -- -- 86
2018-05-18 11:00:00 12.2 7 Sudeste 10 Sudeste 0 -- -- 86
2018-05-18 10:00:00 11 6 Este 11 Este 0 -- -- 90
2018-05-18 09:00:00 10.4 5 Este 12 Este 0 -- -- 92
2018-05-18 08:00:00 10 8 Este 14 Este 0 -- -- 94
2018-05-18 07:00:00 10.2 4 Este 9 Este 0 -- -- 94
2018-05-18 06:00:00 10.3 4 Este 11 Este 0 -- -- 94
2018-05-18 05:00:00 10.5 6 Sudeste 10 Sudeste 0 -- -- 93
2018-05-18 04:00:00 10.8 3 Este 4 Nordeste 0.2 -- -- 91
2018-05-18 03:00:00 11.1 2 Oeste 9 Oeste 0 -- -- 90
2018-05-18 02:00:00 10.9 5 Sudoeste 18 Sudoeste 0 -- -- 87
2018-05-18 01:00:00 11 16 Sudoeste 32 Sudoeste 1.4 -- -- 88
2018-05-18 00:00:00 11.6 21 Sudoeste 28 Sudoeste 0.2 -- -- 88
2018-05-17 23:00:00 11.7 10 Noroeste 23 Noroeste 0.2 -- -- 84
2018-05-17 22:00:00 11.9 15 Noroeste 36 Noroeste 0.2 -- -- 87
2018-05-17 21:00:00 14.8 17 Noroeste 29 Noroeste 0 -- -- 64
2018-05-17 20:00:00 17.8 17 Sudeste 29 Sudeste 0 -- -- 46
2018-05-17 19:00:00 18.6 20 Sudeste 39 Sudeste 0 -- -- 46
2018-05-17 18:00:00 20.6 22 Este 33 Nordeste 0 -- -- 43
2018-05-17 17:00:00 21.5 17 Este 32 Nordeste 0 -- -- 39
2018-05-17 16:00:00 20.4 21 Nordeste 30 Nordeste 0 -- -- 43
2018-05-17 15:00:00 21.5 10 Sudeste 19 Este 0 -- -- 34
2018-05-17 14:00:00 20.8 6 Este 21 Sudoeste 0 -- -- 35
2018-05-17 13:00:00 19.6 7 Este 21 Este 0 -- -- 36
2018-05-17 12:00:00 18.7 10 Nordeste 20 Nordeste 0 -- -- 41
2018-05-17 11:00:00 16.6 7 Nordeste 13 Nordeste 0 -- -- 52
2018-05-17 10:00:00 14.2 4 Oeste 9 Sudeste 0 -- -- 59
2018-05-17 09:00:00 11.2 6 Sudeste 10 Sudeste 0 -- -- 72
2018-05-17 08:00:00 7 4 Oeste 10 Oeste 0 -- -- 89
2018-05-17 07:00:00 5 3 Noroeste 8 Nordeste 0 -- -- 90
2018-05-17 06:00:00 5.1 6 Sudoeste 13 Sudoeste 0 -- -- 89
2018-05-17 05:00:00 5.3 10 Sudoeste 13 Sudoeste 0 -- -- 89
2018-05-17 04:00:00 5.8 5 Oeste 9 Oeste 0 -- -- 87
2018-05-17 03:00:00 6.8 3 Sudoeste 8 Sudeste 0 -- -- 84
2018-05-17 02:00:00 8.7 7 Sudeste 13 Este 0 -- -- 85
2018-05-17 01:00:00 9.9 11 Este 21 Este 0 -- -- 83
2018-05-17 00:00:00 10.8 8 Este 20 Este 0 -- -- 79
2018-05-16 23:00:00 12.3 14 Sudeste 19 Sur 0 -- -- 71
2018-05-16 22:00:00 13.5 11 Este 24 Nordeste 0 -- -- 63
2018-05-16 21:00:00 16.3 16 Nordeste 31 Este 0 -- -- 55
2018-05-16 20:00:00 18.8 17 Nordeste 26 Este 0 -- -- 47
2018-05-16 19:00:00 19.5 17 Este 32 Este 0 -- -- 45
2018-05-16 18:00:00 20 21 Este 33 Este 0 -- -- 44
2018-05-16 17:00:00 19.6 23 Este 38 Este 0 -- -- 46
2018-05-16 16:00:00 20.3 16 Nordeste 30 Este 0 -- -- 43
2018-05-16 15:00:00 19.7 12 Este 27 Este 0 -- -- 43
2018-05-16 14:00:00 19.1 11 Sudeste 19 Sudeste 0 -- -- 43
2018-05-16 13:00:00 17.9 8 Sudeste 19 Sudeste 0 -- -- 45
2018-05-16 12:00:00 15.4 7 Sudeste 15 Sudeste 0 -- -- 52
2018-05-16 11:00:00 13.1 6 Sudeste 13 Este 0 -- -- 57
2018-05-16 10:00:00 10.6 6 Nordeste 10 Este 0 -- -- 63
2018-05-16 09:00:00 8.2 5 Este 9 Este 0 -- -- 71
2018-05-16 08:00:00 3.9 0 Calma 6 Este 0 -- -- 91
2018-05-16 07:00:00 1.9 4 Sur 6 Sur 0 -- -- 92
2018-05-16 06:00:00 2.4 3 Este 8 Sudoeste 0 -- -- 91
2018-05-16 05:00:00 3.4 5 Sudoeste 8 Sudoeste 0 -- -- 91
2018-05-16 04:00:00 3.9 6 Sur 10 Sur 0 -- -- 91
2018-05-16 03:00:00 4.1 6 Sur 10 Sur 0 -- -- 90
2018-05-16 02:00:00 4.3 8 Sudeste 10 Sudeste 0 -- -- 86
2018-05-16 01:00:00 6.1 3 Sur 13 Este 0 -- -- 85
2018-05-16 00:00:00 7 5 Sudeste 12 Nordeste 0 -- -- 81
2018-05-15 23:00:00 8.4 8 Nordeste 19 Nordeste 0 -- -- 78
2018-05-15 22:00:00 10 6 Nordeste 19 Nordeste 0 -- -- 72
2018-05-15 21:00:00 11.9 15 Nordeste 28 Este 0 -- -- 66
2018-05-15 20:00:00 14.2 19 Nordeste 32 Nordeste 0 -- -- 60
2018-05-15 19:00:00 15.6 19 Nordeste 35 Nordeste 0 -- -- 55
2018-05-15 18:00:00 16.4 17 Nordeste 30 Este 0 -- -- 50
2018-05-15 17:00:00 15.9 17 Nordeste 33 Este 0 -- -- 50
2018-05-15 16:00:00 15.8 12 Nordeste 26 Norte 0 -- -- 49
2018-05-15 15:00:00 14.9 15 Nordeste 35 Nordeste 0 -- -- 52
2018-05-15 14:00:00 13.8 15 Nordeste 28 Nordeste 0 -- -- 52
2018-05-15 13:00:00 12.6 13 Nordeste 29 Norte 0 -- -- 54
2018-05-15 12:00:00 11.1 16 Nordeste 34 Norte 0 -- -- 57
2018-05-15 11:00:00 10.2 21 Nordeste 35 Nordeste 0 -- -- 61
2018-05-15 10:00:00 7.8 6 Norte 14 Norte 0 -- -- 66
2018-05-15 09:00:00 5.5 6 Noroeste 12 Noroeste 0 -- -- 74
2018-05-15 08:00:00 4 5 Oeste 10 Oeste 0 -- -- 78
2018-05-15 07:00:00 2.7 6 Noroeste 12 Oeste 0 -- -- 81
2018-05-15 06:00:00 3.5 9 Norte 17 Norte 0 -- -- 78
2018-05-15 05:00:00 3 8 Oeste 19 Norte 0 -- -- 81
2018-05-15 04:00:00 4.2 14 Norte 21 Norte 0 -- -- 75
2018-05-15 03:00:00 4 10 Noroeste 18 Noroeste 0 -- -- 80
2018-05-15 02:00:00 4.7 8 Noroeste 15 Noroeste 0 -- -- 76
2018-05-15 01:00:00 5.4 5 Noroeste 16 Noroeste 0 -- -- 77
2018-05-15 00:00:00 6.3 13 Norte 29 Nordeste 0 -- -- 73
2018-05-14 23:00:00 7 12 Nordeste 30 Nordeste 0 -- -- 69
2018-05-14 22:00:00 7.8 16 Nordeste 34 Nordeste 0 -- -- 65
2018-05-14 21:00:00 10.1 21 Nordeste 35 Nordeste 0 -- -- 54
2018-05-14 20:00:00 12.6 23 Nordeste 44 Norte 0 -- -- 44
2018-05-14 19:00:00 14.1 23 Norte 44 Norte 0 -- -- 38
2018-05-14 18:00:00 14.6 27 Norte 42 Norte 0 -- -- 39
2018-05-14 17:00:00 14.8 26 Norte 47 Norte 0 -- -- 38
2018-05-14 16:00:00 14.7 23 Norte 36 Norte 0 -- -- 35
2018-05-14 15:00:00 13.9 22 Norte 39 Norte 0 -- -- 40
2018-05-14 14:00:00 12.3 20 Norte 37 Norte 0 -- -- 48
2018-05-14 13:00:00 12.4 19 Norte 30 Noroeste 0 -- -- 47
2018-05-14 12:00:00 10.6 17 Norte 36 Norte 0 -- -- 58
2018-05-14 11:00:00 9.6 20 Norte 33 Noroeste 0 -- -- 60
2018-05-14 10:00:00 9.2 18 Norte 30 Noroeste 0 -- -- 62
2018-05-14 09:00:00 7.6 17 Noroeste 26 Noroeste 0 -- -- 68
2018-05-14 08:00:00 4.9 5 Noroeste 8 Noroeste 0 -- -- 80
2018-05-14 07:00:00 2.4 4 Noroeste 9 Noroeste 0 -- -- 85
2018-05-14 06:00:00 2.4 3 Norte 6 Oeste 0 -- -- 86
2018-05-14 05:00:00 3 2 Sur 10 Este 0 -- -- 83
2018-05-14 04:00:00 4.8 2 Sur 5 Nordeste 0 -- -- 75
2018-05-14 03:00:00 6.2 3 Nordeste 8 Nordeste 0 -- -- 73
2018-05-14 02:00:00 6.3 5 Nordeste 15 Nordeste 0 -- -- 71
2018-05-14 01:00:00 6.5 12 Nordeste 21 Este 0 -- -- 70
2018-05-11 20:00:00 -- -- -- -- -- -- -- -- --
2018-05-11 19:00:00 22.2 16 Noroeste 30 Noroeste 0 -- -- 37
2018-05-11 18:00:00 22.7 18 Oeste 27 Oeste 0 -- -- 37
2018-05-11 17:00:00 22.8 15 Oeste 26 Oeste 0 -- -- 35
2018-05-11 16:00:00 22.5 14 Oeste 30 Oeste 0 -- -- 35
2018-05-11 15:00:00 22.8 14 Oeste 29 Sudoeste 0 -- -- 35
2018-05-11 14:00:00 22.4 17 Noroeste 32 Noroeste 0 -- -- 35
2018-05-11 13:00:00 21.8 14 Oeste 35 Oeste 0 -- -- 40
2018-05-11 12:00:00 19.9 15 Oeste 29 Noroeste 0 -- -- 43
2018-05-11 11:00:00 17.4 6 Sudeste 19 Sur 0 -- -- 63
2018-05-11 10:00:00 15 13 Sur 24 Sur 0 -- -- 69
2018-05-11 09:00:00 12.2 15 Sur 22 Sur 0 -- -- 77
2018-05-11 08:00:00 6.6 4 Norte 8 Norte 0 -- -- 92
2018-05-11 07:00:00 4.9 4 Noroeste 10 Norte 0 -- -- 90
2018-05-11 06:00:00 5 3 Oeste 8 Oeste 0 -- -- 89
2018-05-11 05:00:00 3.9 3 Oeste 6 Norte 0 -- -- 88
2018-05-11 04:00:00 4.7 3 Norte 7 Sur 0 -- -- 88
2018-05-11 03:00:00 4.9 4 Sudoeste 6 Sudoeste 0 -- -- 87
2018-05-11 02:00:00 5.9 0 Calma 4 Oeste 0 -- -- 83
2018-05-11 01:00:00 6.9 3 Sudoeste 10 Sudoeste 0 -- -- 82
2018-05-11 00:00:00 7.4 0 Calma 11 Sur 0 -- -- 80
2018-05-10 23:00:00 8.5 6 Sudeste 16 Este 0 -- -- 76
2018-05-10 22:00:00 9.9 7 Sudeste 21 Nordeste 0 -- -- 72
2018-05-10 21:00:00 12.2 14 Este 26 Este 0 -- -- 63
2018-05-10 20:00:00 14.7 18 Este 32 Nordeste 0 -- -- 56
2018-05-10 19:00:00 16.1 23 Nordeste 36 Nordeste 0 -- -- 52
2018-05-10 18:00:00 17.7 19 Este 31 Nordeste 0 -- -- 47
2018-05-10 17:00:00 18.6 18 Este 29 Este 0 -- -- 44
2018-05-10 16:00:00 18.2 12 Norte 22 Este 0 -- -- 38
2018-05-10 15:00:00 17.4 7 Norte 17 Nordeste 0 -- -- 42
2018-05-10 14:00:00 16.4 11 Norte 24 Nordeste 0 -- -- 45
2018-05-10 13:00:00 15.1 9 Nordeste 25 Norte 0 -- -- 50
2018-05-10 12:00:00 13.6 10 Norte 19 Norte 0 -- -- 54
2018-05-10 11:00:00 11.6 10 Noroeste 20 Noroeste 0 -- -- 71
2018-05-10 10:00:00 10.5 6 Norte 13 Norte 0 -- -- 73
2018-05-10 09:00:00 9.6 4 Nordeste 9 Este 0 -- -- 78
2018-05-10 08:00:00 8.6 3 Sur 7 Sudoeste 0 -- -- 83
2018-05-10 07:00:00 8.1 5 Nordeste 12 Nordeste 0 -- -- 85
2018-05-10 06:00:00 8.1 6 Nordeste 11 Nordeste 0 -- -- 84
2018-05-10 05:00:00 8.2 0 Calma 15 Nordeste 0 -- -- 85
2018-05-10 04:00:00 7.9 9 Este 14 Este 0 -- -- 85
2018-05-10 03:00:00 8.5 4 Sudeste 15 Sudeste 0 -- -- 83
2018-05-10 02:00:00 8.6 7 Este 14 Este 0 -- -- 83
2018-05-10 01:00:00 9.6 7 Este 22 Este 0 -- -- 82
2018-05-10 00:00:00 10.3 14 Este 29 Este 0 -- -- 82
2018-05-09 23:00:00 11.3 19 Este 38 Este 0 -- -- 79
2018-05-09 22:00:00 12.4 26 Nordeste 39 Nordeste 0 -- -- 75
2018-05-09 21:00:00 14.5 24 Nordeste 34 Nordeste 0 -- -- 67
2018-05-09 20:00:00 17.8 23 Nordeste 37 Nordeste 0 -- -- 54
2018-05-09 19:00:00 20.7 18 Nordeste 27 Noroeste 0 -- -- 46
2018-05-09 18:00:00 21.8 15 Norte 29 Noroeste 0 -- -- 37
2018-05-09 17:00:00 21.4 14 Norte 31 Norte 0 -- -- 34
2018-05-09 16:00:00 20.8 15 Norte 32 Norte 0 -- -- 35
2018-05-09 15:00:00 20.1 18 Norte 32 Norte 0 -- -- 33
2018-05-09 14:00:00 19.4 16 Norte 27 Norte 0 -- -- 33
2018-05-09 13:00:00 18.2 15 Norte 26 Norte 0 -- -- 38
2018-05-09 12:00:00 15.9 6 Nordeste 13 Nordeste 0 -- -- 66
2018-05-09 11:00:00 13.5 6 Nordeste 13 Nordeste 0 -- -- 77
2018-05-09 10:00:00 10.9 4 Noroeste 11 Noroeste 0 -- -- 85
2018-05-09 09:00:00 8.7 8 Norte 14 Noroeste 0 -- -- 94
2018-05-09 08:00:00 7.2 6 Noroeste 15 Oeste 0 -- -- 93
2018-05-09 07:00:00 6.7 6 Noroeste 9 Noroeste 0 -- -- 92
2018-05-09 06:00:00 8.3 5 Noroeste 9 Noroeste 0 -- -- 90
2018-05-09 05:00:00 9.3 3 Oeste 6 Noroeste 0 -- -- 94
2018-05-09 04:00:00 8.1 5 Este 9 Sudoeste 0 -- -- 94
2018-05-09 03:00:00 7.5 4 Sudoeste 12 Sudoeste 0 -- -- 94
2018-05-09 02:00:00 7.8 4 Sudeste 8 Sudeste 0 -- -- 89
2018-05-09 01:00:00 9.6 7 Este 15 Este 0 -- -- 89
2018-05-09 00:00:00 10.1 6 Sudeste 16 Este 0 -- -- 87
2018-05-08 23:00:00 11.4 8 Este 18 Este 0 -- -- 85
2018-05-08 22:00:00 12.9 11 Este 24 Nordeste 0 -- -- 81
2018-05-08 21:00:00 15.2 14 Nordeste 25 Nordeste 0 -- -- 67
2018-05-08 20:00:00 17.2 17 Nordeste 36 Nordeste 0 -- -- 62
2018-05-08 19:00:00 19.5 19 Este 34 Nordeste 0 -- -- 56
2018-05-08 18:00:00 20.4 20 Nordeste 37 Nordeste 0 -- -- 51
2018-05-08 17:00:00 20.9 23 Nordeste 38 Nordeste 0 -- -- 46
2018-05-08 16:00:00 21.1 18 Nordeste 34 Nordeste 0 -- -- 44
2018-05-08 15:00:00 19.9 12 Nordeste 30 Norte 0 -- -- 49
2018-05-08 14:00:00 18.7 16 Norte 29 Norte 0 -- -- 59
2018-05-08 13:00:00 18.9 17 Nordeste 27 Nordeste 0 -- -- 61
2018-05-08 12:00:00 16.6 5 Nordeste 11 Nordeste 0 -- -- 71
2018-05-08 11:00:00 15.6 5 Norte 10 Norte 0 -- -- 74
2018-05-08 10:00:00 12.9 3 Sur 5 Nordeste 0 -- -- 89
2018-05-08 09:00:00 10.1 4 Nordeste 6 Nordeste 0 -- -- 97
2018-05-08 08:00:00 7.1 3 Oeste 5 Sudoeste 0 -- -- 97
2018-05-08 07:00:00 7.2 3 Norte 5 Norte 0 -- -- 97
2018-05-08 06:00:00 6.7 3 Oeste 6 Sudoeste 0 -- -- 96
2018-05-08 05:00:00 6.8 0 Calma 6 Noroeste 0 -- -- 95
2018-05-08 04:00:00 7.1 0 Calma 12 Sudoeste 0 -- -- 94
2018-05-08 03:00:00 7.6 6 Oeste 13 Sudoeste 0 -- -- 96
2018-05-08 02:00:00 7.6 5 Nordeste 10 Sudoeste 0 -- -- 93
2018-05-08 01:00:00 8.6 10 Sudoeste 12 Sudoeste 0 -- -- 93
2018-05-08 00:00:00 9.9 0 Calma 4 Sur 0 -- -- 91
2018-05-07 23:00:00 10.9 4 Nordeste 18 Sudoeste 0 -- -- 89
2018-05-07 22:00:00 12.2 12 Sudoeste 15 Sudoeste 0 -- -- 88
2018-05-07 21:00:00 14.3 2 Oeste 14 Sur 0 -- -- 81
2018-05-07 20:00:00 15.7 8 Sur 48 Sudeste -- -- -- 71
2018-05-07 19:00:00 17 23 Este 37 Este 0 -- -- 63
2018-05-07 18:00:00 18.3 9 Sur 23 Nordeste 0 -- -- 62
2018-05-07 17:00:00 18.9 6 Este 25 Este 0 -- -- 59
2018-05-07 16:00:00 17.8 9 Este 23 Este 0 -- -- 68
2018-05-07 15:00:00 15.8 14 Nordeste 22 Nordeste 0 -- -- 74
2018-05-07 14:00:00 14.8 6 Nordeste 10 Nordeste 0 -- -- 79
2018-05-07 13:00:00 13.5 3 Este 9 Norte 1.2 -- -- 87
2018-05-07 12:00:00 13.3 6 Norte 10 Norte 0 -- -- 83
2018-05-07 11:00:00 12.2 3 Noroeste 6 Norte 0.4 -- -- 88
2018-05-07 10:00:00 11.2 2 Sur 6 Sudoeste 0 -- -- 87
2018-05-07 09:00:00 9.7 4 Sur 6 Sur 0 -- -- 92
2018-05-07 08:00:00 9 3 Noroeste 8 Noroeste 0 -- -- 92
2018-05-07 07:00:00 7.8 3 Noroeste 6 Noroeste 0 -- -- 94
2018-05-07 06:00:00 6.3 7 Oeste 10 Sudoeste 0 -- -- 93
2018-05-07 05:00:00 6.3 2 Oeste 6 Oeste 0 -- -- 92
2018-05-07 04:00:00 6.8 3 Sudoeste 9 Sudoeste 0 -- -- 92
2018-05-07 03:00:00 7 4 Oeste 12 Sudoeste 0 -- -- 91
2018-05-07 02:00:00 7.6 2 Sudoeste 7 Oeste 0 -- -- 89
2018-05-07 01:00:00 8.4 0 Calma 6 Oeste 0 -- -- 87
2018-05-07 00:00:00 10.1 0 Calma 5 Este 0 -- -- 85
2018-05-06 23:00:00 10.5 4 Este 19 Sudeste 0 -- -- 83
2018-05-06 22:00:00 12.4 12 Sur 21 Sur 0 -- -- 78
2018-05-06 21:00:00 14.2 17 Sur 27 Este 0 -- -- 74
2018-05-06 20:00:00 17.5 19 Este 30 Este 0 -- -- 49
2018-05-06 19:00:00 19.3 16 Este 31 Este 0 -- -- 46
2018-05-06 18:00:00 19.3 15 Este 27 Nordeste 0 -- -- 43
2018-05-06 17:00:00 21.3 11 Este 24 Sudeste 0 -- -- 38
2018-05-06 16:00:00 20.6 5 Noroeste 25 Este 0 -- -- 43
2018-05-06 15:00:00 19.4 8 Este 21 Sudeste 0 -- -- 48
2018-05-06 14:00:00 19.4 10 Este 19 Este 0 -- -- 47
2018-05-06 13:00:00 18.5 7 Sudeste 18 Sur 0 -- -- 51
2018-05-06 12:00:00 16.9 8 Sur 15 Sudeste 0 -- -- 57
2018-05-06 11:00:00 15.3 5 Sudeste 12 Sudeste 0 -- -- 65
2018-05-06 10:00:00 12.9 3 Nordeste 7 Nordeste 0 -- -- 78
2018-05-06 09:00:00 8.9 3 Sur 6 Este 0 -- -- 90
2018-05-06 08:00:00 5.7 0 Calma 9 Sudoeste 0 -- -- 95
2018-05-06 07:00:00 4.5 3 Sudoeste 7 Sudoeste 0 -- -- 92
2018-05-06 06:00:00 5.1 4 Sudoeste 7 Sudoeste 0 -- -- 91
2018-05-06 05:00:00 5.6 5 Sudeste 9 Oeste 0 -- -- 88
2018-05-06 04:00:00 7.3 3 Sudoeste 9 Este 0 -- -- 87
2018-05-06 03:00:00 9.5 0 Calma 15 Sudeste 0 -- -- 83
2018-05-06 02:00:00 11.1 2 Sur 5 Sudoeste 0 -- -- 79
2018-05-06 01:00:00 11.8 0 Calma 13 Este 0 -- -- 78
2018-05-06 00:00:00 12 0 Calma 13 Este 0 -- -- 77
2018-05-05 23:00:00 11.9 8 Sudeste 10 Sudeste 0 -- -- 82
2018-05-05 22:00:00 12.6 8 Sudeste 17 Sur 0 -- -- 78
2018-05-05 21:00:00 14.7 15 Sur 27 Sur 0 -- -- 67
2018-05-05 20:00:00 18 19 Sudeste 26 Este 0 -- -- 51
2018-05-05 19:00:00 18.3 17 Este 32 Este 0 -- -- 47
2018-05-05 18:00:00 18.9 20 Nordeste 28 Este 0 -- -- 47
2018-05-05 17:00:00 18.5 15 Nordeste 28 Este 0 -- -- 46
2018-05-05 16:00:00 19.5 9 Este 27 Este 0 -- -- 44
2018-05-05 15:00:00 18.6 9 Nordeste 26 Nordeste 0 -- -- 46
2018-05-05 14:00:00 17.8 4 Nordeste 18 Nordeste 0 -- -- 49
2018-05-05 13:00:00 16.5 10 Este 16 Este 0 -- -- 54
2018-05-05 12:00:00 14.2 6 Norte 14 Nordeste 0 -- -- 60
2018-05-05 11:00:00 12.3 4 Nordeste 10 Norte 0 -- -- 66
2018-05-05 10:00:00 9.3 3 Noroeste 6 Noroeste 0 -- -- 74
2018-05-05 09:00:00 7.4 0 Calma 3 Sudeste 0 -- -- 81
2018-05-05 08:00:00 3.9 0 Calma 4 Sudeste 0 -- -- 91
2018-05-05 07:00:00 2.9 0 Calma 9 Sudoeste 0 -- -- 92
2018-05-05 06:00:00 2 8 Sudoeste 10 Sudoeste 0 -- -- 92
2018-05-05 05:00:00 2.1 5 Sudoeste 6 Sudoeste 0 -- -- 90
2018-05-05 04:00:00 2.8 2 Sudoeste 12 Oeste 0 -- -- 89
2018-05-05 03:00:00 3.7 4 Sur 8 Sudeste 0 -- -- 87
2018-05-05 02:00:00 5.1 3 Sudoeste 8 Sur 0 -- -- 85
2018-05-05 01:00:00 5.4 8 Sudeste 12 Sudeste 0 -- -- 86
2018-05-05 00:00:00 6.1 8 Este 17 Este 0 -- -- 81
2018-05-04 23:00:00 7.3 8 Nordeste 24 Este 0 -- -- 76
2018-05-04 22:00:00 8.4 15 Este 32 Este 0 -- -- 72
2018-05-04 21:00:00 10.6 21 Este 33 Nordeste 0 -- -- 65
2018-05-04 20:00:00 12.8 23 Este 34 Nordeste 0 -- -- 58
2018-05-04 19:00:00 15.3 23 Nordeste 32 Este 0 -- -- 51
2018-05-04 18:00:00 16.2 20 Este 31 Nordeste 0 -- -- 48
2018-05-04 17:00:00 16.8 9 Norte 24 Nordeste 0 -- -- 44
2018-05-04 16:00:00 15.8 13 Nordeste 24 Nordeste 0 -- -- 44
2018-05-04 15:00:00 15.1 12 Norte 27 Norte 0 -- -- 46
2018-05-04 14:00:00 13.8 12 Norte 24 Norte 0 -- -- 50
2018-05-04 13:00:00 12.4 13 Norte 26 Nordeste 0 -- -- 52
2018-05-04 12:00:00 11.1 11 Norte 29 Norte 0 -- -- 58
2018-05-04 11:00:00 9.1 18 Norte 36 Nordeste 0 -- -- 61
2018-05-04 10:00:00 7.3 12 Norte 17 Norte 0 -- -- 71
2018-05-04 09:00:00 4.9 9 Noroeste 15 Oeste 0 -- -- 79
2018-05-04 08:00:00 2.9 8 Oeste 15 Oeste 0 -- -- 84
2018-05-04 07:00:00 2.2 7 Noroeste 14 Noroeste 0 -- -- 84
2018-05-04 06:00:00 2.5 7 Noroeste 12 Noroeste 0 -- -- 83
2018-05-04 05:00:00 2.6 7 Noroeste 12 Noroeste 0 -- -- 84
2018-05-04 04:00:00 2.4 4 Noroeste 10 Noroeste 0 -- -- 83
2018-05-04 03:00:00 2.6 7 Norte 13 Norte 0 -- -- 81
2018-05-04 02:00:00 3 6 Norte 10 Norte 0 -- -- 80
2018-05-04 01:00:00 3.4 9 Nordeste 18 Norte 0 -- -- 78
2018-05-04 00:00:00 4.5 17 Nordeste 39 Nordeste 0 -- -- 74
2018-05-03 23:00:00 5.5 23 Nordeste 37 Nordeste 0 -- -- 70
2018-05-03 22:00:00 6.9 16 Nordeste 43 Nordeste 0 -- -- 67
2018-05-03 21:00:00 8 24 Nordeste 42 Nordeste 0 -- -- 63
2018-05-03 20:00:00 9.8 26 Nordeste 41 Nordeste 0 -- -- 60
2018-05-03 19:00:00 11.1 25 Nordeste 39 Nordeste 0 -- -- 56
2018-05-03 18:00:00 11.3 21 Nordeste 35 Norte 0 -- -- 55
2018-05-03 17:00:00 12 19 Nordeste 35 Norte 0 -- -- 53
2018-05-03 16:00:00 11.9 22 Norte 43 Nordeste 0 -- -- 52
2018-05-03 15:00:00 12.4 23 Norte 40 Norte 0 -- -- 51
2018-05-03 14:00:00 12.3 23 Nordeste 40 Nordeste 0 -- -- 46
2018-05-03 13:00:00 11.7 15 Norte 34 Noroeste 0 -- -- 45
2018-05-03 12:00:00 10.5 23 Noroeste 39 Noroeste 0 -- -- 53
2018-05-03 11:00:00 10.4 18 Norte 41 Norte 0 -- -- 53
2018-05-03 10:00:00 9.2 21 Norte 40 Norte 0 -- -- 61
2018-05-03 09:00:00 8.2 19 Norte 32 Norte 0 -- -- 74
2018-05-03 08:00:00 7.7 15 Norte 23 Norte 0 -- -- 88
2018-05-03 07:00:00 7.5 10 Noroeste 19 Noroeste 0 -- -- 84
2018-05-03 06:00:00 7.8 12 Noroeste 19 Noroeste 0 -- -- 82
2018-05-03 05:00:00 7.8 8 Noroeste 16 Noroeste 0 -- -- 80
2018-05-03 04:00:00 9.1 10 Noroeste 20 Noroeste 0 -- -- 75
2018-05-03 03:00:00 9.5 13 Noroeste 25 Noroeste 0 -- -- 73
2018-05-03 02:00:00 9.4 13 Noroeste 21 Noroeste 0 -- -- 73
2018-05-03 01:00:00 9.3 12 Noroeste 19 Noroeste 0 -- -- 74
2018-05-03 00:00:00 9.1 10 Noroeste 15 Noroeste 0 -- -- 77
2018-05-02 23:00:00 9.7 7 Noroeste 22 Norte 0 -- -- 70
2018-05-02 22:00:00 10.1 9 Nordeste 19 Nordeste 0 -- -- 69
2018-05-02 21:00:00 12.8 14 Norte 29 Noroeste 0 -- -- 49
2018-05-02 20:00:00 13.5 17 Noroeste 31 Norte 0 -- -- 44
2018-05-02 19:00:00 14.1 18 Noroeste 38 Noroeste 0 -- -- 40
2018-05-02 18:00:00 14.2 19 Noroeste 41 Noroeste 0 -- -- 38
2018-05-02 17:00:00 15.2 25 Noroeste 44 Noroeste 0 -- -- 37
2018-05-02 16:00:00 15.1 24 Norte 45 Norte 0 -- -- 36
2018-05-02 15:00:00 13.7 27 Noroeste 45 Noroeste 0 -- -- 43
2018-05-02 14:00:00 13 24 Noroeste 39 Noroeste 0 -- -- 41
2018-05-02 13:00:00 11.7 17 Noroeste 36 Oeste 0 -- -- 45
2018-05-02 12:00:00 11.3 21 Noroeste 34 Noroeste 0 -- -- 45
2018-05-02 11:00:00 10.4 18 Noroeste 28 Noroeste 0 -- -- 49
2018-05-02 10:00:00 6.7 4 Nordeste 7 Norte 0 -- -- 72
2018-05-02 09:00:00 4 2 Nordeste 6 Este 0 -- -- 82
2018-05-02 08:00:00 0.6 0 Calma 3 Este 0 -- -- 94
2018-05-02 07:00:00 -1.3 2 Sudoeste 4 Sudoeste 0 -- -- 93
2018-05-02 06:00:00 -1.9 3 Oeste 13 Sudoeste 0 -- -- 92
2018-05-02 05:00:00 -1.8 4 Oeste 5 Oeste 0 -- -- 90
2018-05-02 04:00:00 -0.7 3 Oeste 6 Noroeste 0 -- -- 88
2018-05-02 03:00:00 0.2 5 Noroeste 8 Oeste 0 -- -- 88
2018-05-02 02:00:00 0.4 0 Calma 10 Sudoeste 0 -- -- 86
2018-05-02 01:00:00 1.7 7 Sudoeste 10 Sudoeste 0 -- -- 85
2018-05-02 00:00:00 3.3 0 Calma 18 Este 0 -- -- 75
2018-05-01 23:00:00 4.5 10 Sudeste 16 Sudeste 0 -- -- 75
2018-05-01 22:00:00 5.4 10 Este 19 Este 0 -- -- 69
2018-05-01 21:00:00 7.6 11 Este 21 Este 0 -- -- 59
2018-05-01 20:00:00 11.4 12 Norte 25 Norte 0 -- -- 38
2018-05-01 19:00:00 11.4 13 Norte 25 Nordeste 0 -- -- 39
2018-05-01 18:00:00 11.8 14 Norte 24 Noroeste 0 -- -- 41
2018-05-01 17:00:00 11.5 13 Noroeste 24 Noroeste 0 -- -- 43
2018-05-01 16:00:00 10.3 12 Norte 26 Norte 0 -- -- 47
2018-05-01 15:00:00 10.5 14 Norte 26 Noroeste 0 -- -- 52
2018-05-01 14:00:00 9.3 13 Norte 27 Norte 0 -- -- 56
2018-05-01 13:00:00 7.4 13 Norte 24 Noroeste 0 -- -- 64
2018-05-01 12:00:00 6.1 14 Norte 24 Norte 0 -- -- 71
2018-05-01 11:00:00 5.2 12 Norte 20 Norte 0 -- -- 74
2018-05-01 10:00:00 3.9 8 Norte 16 Noroeste 0 -- -- 82
2018-05-01 09:00:00 2.1 8 Noroeste 17 Noroeste 0 -- -- 89
2018-05-01 08:00:00 1.4 5 Norte 12 Noroeste 0 -- -- 93
2018-05-01 07:00:00 1.6 6 Norte 10 Noroeste 0 -- -- 93
2018-05-01 06:00:00 1.5 6 Norte 13 Noroeste 0 -- -- 92
2018-05-01 05:00:00 2.1 6 Noroeste 17 Noroeste 0 -- -- 94
2018-05-01 04:00:00 0.7 2 Sudoeste 12 Noroeste 0 -- -- 94
2018-05-01 03:00:00 1.1 6 Noroeste 13 Noroeste 0 -- -- 93
2018-05-01 02:00:00 1.2 4 Noroeste 6 Oeste 0 -- -- 95
2018-05-01 01:00:00 0.4 2 Nordeste 6 Oeste 0 -- -- 93
2018-05-01 00:00:00 1.4 4 Oeste 10 Noroeste 0 -- -- 92
2018-04-30 23:00:00 2 7 Noroeste 13 Oeste 0 -- -- 92
2018-04-30 22:00:00 2.4 8 Oeste 26 Noroeste 0.4 -- -- 92
2018-04-30 21:00:00 2.9 20 Noroeste 33 Noroeste 0 -- -- 88
2018-04-30 20:00:00 5.5 7 Noroeste 17 Norte 0 -- -- 80
2018-04-30 19:00:00 4.1 15 Norte -- -- 1.2 -- -- 86
2018-04-30 18:00:00 5.2 24 Norte 36 Norte 0 -- -- 80
2018-04-30 17:00:00 5.2 24 Noroeste 47 Norte 0 -- -- 81
2018-04-30 16:00:00 8 14 Norte 31 Norte 0 -- -- 54
2018-04-30 15:00:00 8.8 17 Noroeste 32 Oeste 0 -- -- 48
2018-04-30 14:00:00 9.5 23 Oeste 53 Sudoeste 0 -- -- 45
2018-04-30 13:00:00 8.5 15 Oeste 27 Oeste 0 -- -- 53
2018-04-30 12:00:00 7.5 13 Oeste 24 Oeste 0 -- -- 57
2018-04-30 11:00:00 5.7 16 Oeste 23 Oeste 0 -- -- 65
2018-04-30 10:00:00 4.5 9 Oeste 15 Oeste 0 -- -- 77
2018-04-30 09:00:00 3.4 6 Noroeste 15 Norte 0 -- -- 85
2018-04-30 08:00:00 1.5 8 Noroeste 13 Noroeste 0 -- -- 88
2018-04-30 07:00:00 1.9 9 Oeste 22 Oeste 0 -- -- 85
2018-04-30 06:00:00 1.5 13 Oeste 21 Oeste 0 -- -- 88
2018-04-30 05:00:00 1.9 6 Oeste 10 Noroeste 0 -- -- 84
2018-04-30 04:00:00 2.5 9 Oeste 23 Oeste 0 -- -- 85
2018-04-30 03:00:00 3.4 11 Oeste 28 Oeste 0 -- -- 85
2018-04-30 02:00:00 3 15 Oeste 32 Sudoeste 0 -- -- 87
2018-04-30 01:00:00 3.8 18 Oeste 33 Oeste 0 -- -- 87
2018-04-30 00:00:00 3.3 6 Oeste 13 Sudoeste 0 -- -- 86
2018-04-29 23:00:00 3.5 9 Sur 24 Oeste 0 -- -- 83
2018-04-29 22:00:00 5 17 Oeste 32 Oeste 0 -- -- 77
2018-04-29 21:00:00 5.9 23 Oeste 49 Noroeste 0 -- -- 70
2018-04-29 20:00:00 7 29 Oeste 52 Noroeste 0 -- -- 67
2018-04-29 19:00:00 8.2 26 Oeste 60 Oeste 0 -- -- 65
2018-04-29 18:00:00 6.8 36 Oeste 64 Oeste 0 -- -- 71
2018-04-29 17:00:00 9.1 33 Oeste 60 Noroeste 0 -- -- 61
2018-04-29 16:00:00 9.7 37 Oeste 62 Oeste 0 -- -- 56
2018-04-29 15:00:00 8.4 41 Oeste 66 Noroeste 0 -- -- 63
2018-04-29 14:00:00 8.2 41 Oeste 67 Oeste 0 -- -- 63
2018-04-29 13:00:00 7.5 45 Oeste 62 Oeste 0 -- -- 62
2018-04-29 12:00:00 7.7 33 Oeste 53 Oeste 0 -- -- 62
2018-04-29 11:00:00 7.6 29 Oeste 45 Oeste 0 -- -- 62
2018-04-29 10:00:00 6.6 19 Oeste 35 Oeste 0 -- -- 67
2018-04-29 09:00:00 6.2 17 Oeste 33 Sudoeste 0 -- -- 72
2018-04-29 08:00:00 6.3 17 Oeste 29 Sudoeste 0 -- -- 71
2018-04-29 07:00:00 5.7 10 Sudoeste 21 Sudoeste 0 -- -- 70
2018-04-29 06:00:00 7 15 Sudoeste 26 Sudoeste 0 -- -- 65
2018-04-29 05:00:00 6.8 7 Sur 11 Sudoeste 0 -- -- 69
2018-04-29 04:00:00 7.3 4 Oeste 15 Oeste 0 -- -- 68
2018-04-29 03:00:00 7.5 10 Oeste 23 Oeste 0 -- -- 67
2018-04-29 02:00:00 8.6 20 Oeste 28 Oeste 0 -- -- 62
2018-04-29 01:00:00 8.7 17 Oeste 27 Oeste 0 -- -- 62
2018-04-29 00:00:00 8.3 14 Oeste 22 Oeste 0 -- -- 63
2018-04-28 23:00:00 9.8 17 Oeste 27 Oeste 0 -- -- 57
2018-04-28 22:00:00 11.5 12 Oeste 24 Oeste 0 -- -- 56
2018-04-28 21:00:00 13.6 21 Oeste 39 Oeste 0 -- -- 59
2018-04-28 20:00:00 15.3 27 Oeste 43 Oeste 0 -- -- 56
2018-04-28 19:00:00 16 21 Oeste 52 Sudoeste 0 -- -- 52
2018-04-28 18:00:00 17 26 Sudoeste 48 Sudoeste 0 -- -- 45
2018-04-28 17:00:00 16.9 24 Sudoeste 37 Sudoeste 0 -- -- 45
2018-04-28 16:00:00 17.2 27 Oeste 50 Oeste 0 -- -- 42
2018-04-28 15:00:00 18.5 28 Oeste 46 Oeste 0 -- -- 39
2018-04-28 14:00:00 18.6 22 Sudoeste 39 Oeste 0 -- -- 41
2018-04-28 13:00:00 17.7 17 Oeste 35 Sudoeste 0 -- -- 42
2018-04-28 12:00:00 17.2 18 Sudoeste 39 Oeste 0 -- -- 47
2018-04-28 11:00:00 15.9 22 Oeste 33 Sur 0 -- -- 51
2018-04-28 10:00:00 15.1 14 Sudoeste 27 Sudoeste 0 -- -- 59
2018-04-28 09:00:00 12.1 4 Nordeste 10 Sudeste 0 -- -- 72
2018-04-28 08:00:00 8 4 Oeste 10 Sudeste 0 -- -- 85
2018-04-28 07:00:00 6.5 6 Sudeste 12 Sudeste 0 -- -- 85
2018-04-28 06:00:00 6.8 10 Sudeste 14 Sur 0 -- -- 86
2018-04-28 05:00:00 5.7 5 Sur 7 Sur 0 -- -- 94
2018-04-28 04:00:00 6.1 0 Calma 5 Sudoeste 0 -- -- 93
2018-04-28 03:00:00 7.2 4 Sudoeste 7 Sudoeste 0 -- -- 93
2018-04-28 02:00:00 7.9 3 Sudoeste 12 Sudeste 0 -- -- 89
2018-04-28 01:00:00 9 6 Sudeste 15 Este 0 -- -- 88
2018-04-28 00:00:00 10.6 13 Este 25 Este 0 -- -- 87
2018-04-27 23:00:00 13 14 Este 22 Este 0 -- -- 85
2018-04-27 22:00:00 13.8 3 Este 14 Este 0 -- -- 82
2018-04-27 21:00:00 15.1 10 Nordeste 29 Nordeste 0 -- -- 77
2018-04-27 20:00:00 18.3 12 Este 24 Este 0 -- -- 59
2018-04-27 19:00:00 20.1 11 Nordeste 30 Oeste 0 -- -- 58
2018-04-27 18:00:00 22.6 20 Noroeste 37 Oeste 0 -- -- 33
2018-04-27 17:00:00 22.6 21 Oeste 40 Noroeste 0 -- -- 40
2018-04-27 16:00:00 22.9 18 Oeste 42 Oeste 0 -- -- 40
2018-04-27 15:00:00 22.1 22 Oeste 37 Oeste 0 -- -- 43
2018-04-27 14:00:00 20.5 5 Noroeste 17 Nordeste 0.2 -- -- 57
2018-04-27 13:00:00 20.1 8 Norte 18 Nordeste 0 -- -- 56
2018-04-27 12:00:00 19.6 6 Norte 13 Noroeste 0 -- -- 59
2018-04-27 11:00:00 18.4 5 Este 10 Este 0 -- -- 63
2018-04-27 10:00:00 16.6 4 Este 9 Este 0 -- -- 67
2018-04-27 09:00:00 14.2 3 Noroeste 9 Noroeste 0 -- -- 72
2018-04-27 08:00:00 11.1 0 Calma 11 Norte 0 -- -- 79
2018-04-27 07:00:00 11.8 8 Noroeste 17 Norte 0 -- -- 73
2018-04-27 06:00:00 9.6 4 Sudoeste 10 Sudoeste 0 -- -- 78
2018-04-27 05:00:00 10.6 4 Sur 17 Sudeste 0 -- -- 75
2018-04-27 04:00:00 9.3 3 Sudeste 9 Sur -- -- -- 82
2018-04-27 03:00:00 10.8 4 Oeste 11 Oeste 0 -- -- 77
2018-04-27 02:00:00 11.1 4 Nordeste 10 Noroeste 0 -- -- 79
2018-04-27 01:00:00 13.5 7 Noroeste 15 Oeste 0 -- -- 70
2018-04-27 00:00:00 13.3 6 Oeste 13 Sudoeste 0 -- -- 73
2018-04-26 23:00:00 14.2 3 Sudoeste 18 Sudoeste 0 -- -- 68
2018-04-26 22:00:00 14.5 3 Sudeste 14 Este 0 -- -- 65
2018-04-26 21:00:00 16.2 8 Este 15 Este 0 -- -- 64
2018-04-26 20:00:00 19.5 12 Este 24 Este 0 -- -- 53
2018-04-26 19:00:00 21.6 15 Nordeste 24 Nordeste 0 -- -- 46
2018-04-26 18:00:00 22.5 10 Nordeste 19 Nordeste 0 -- -- 41
2018-04-26 17:00:00 22.2 7 Nordeste 15 Nordeste 0 -- -- 35
2018-04-26 16:00:00 21.6 4 Sudeste 11 Este 0 -- -- 42
2018-04-26 15:00:00 20.2 5 Norte 15 Norte 0 -- -- 44
2018-04-26 14:00:00 18.4 5 Este 14 Este 0 -- -- 54
2018-04-26 13:00:00 16.3 6 Este 16 Este 0 -- -- 62
2018-04-26 12:00:00 14.6 6 Este 20 Este 0 -- -- 68
2018-04-26 11:00:00 12.1 7 Este 13 Este 0 -- -- 73
2018-04-26 10:00:00 10.2 4 Sudeste 13 Este 0 -- -- 79
2018-04-26 09:00:00 8.2 7 Este 12 Este 0 -- -- 89
2018-04-26 08:00:00 5.8 4 Este 9 Este 0 -- -- 96
2018-04-26 07:00:00 5 8 Sudeste 8 Sudeste 0 -- -- 93
2018-04-26 06:00:00 6.1 6 Este 13 Nordeste 0 -- -- 94
2018-04-26 05:00:00 6.6 10 Este 17 Este 0 -- -- 93
2018-04-26 04:00:00 7.1 10 Este 19 Este 0 -- -- 92
2018-04-26 03:00:00 7.6 11 Este 17 Este 0 -- -- 93
2018-04-26 02:00:00 8 10 Este 35 Nordeste 0 -- -- 93
2018-04-26 01:00:00 8.4 21 Este 33 Este 0 -- -- 91
2018-04-26 00:00:00 9.2 15 Nordeste 35 Este 0 -- -- 92
2018-04-25 23:00:00 10.3 28 Este 41 Nordeste 0 -- -- 89
2018-04-25 22:00:00 12.1 25 Nordeste 49 Este 0 -- -- 84
2018-04-25 21:00:00 15.2 28 Este 39 Este 0 -- -- 77
2018-04-25 20:00:00 18.8 19 Nordeste 37 Nordeste 0 -- -- 56
2018-04-25 19:00:00 20.6 19 Nordeste 33 Nordeste 0 -- -- 52
2018-04-25 18:00:00 22.1 22 Este 34 Nordeste 0 -- -- 40
2018-04-25 17:00:00 22.4 24 Este 35 Nordeste 0 -- -- 32
2018-04-25 16:00:00 22 20 Nordeste 38 Nordeste 0 -- -- 40
2018-04-25 15:00:00 21.4 22 Nordeste 40 Nordeste 0 -- -- 44
2018-04-25 14:00:00 21.1 22 Nordeste 34 Nordeste 0 -- -- 42
2018-04-25 13:00:00 20.8 15 Nordeste 24 Nordeste 0 -- -- 43
2018-04-25 12:00:00 19.3 8 Nordeste 14 Nordeste 0 -- -- 47
2018-04-25 11:00:00 16.5 3 Norte 6 Nordeste 0 -- -- 61
2018-04-25 10:00:00 13.2 3 Nordeste 6 Nordeste 0 -- -- 74
2018-04-25 09:00:00 9.8 0 Calma 7 Oeste 0 -- -- 81
2018-04-25 08:00:00 6 0 Calma 10 Oeste 0 -- -- 88
2018-04-25 07:00:00 6 7 Oeste 10 Sudoeste 0 -- -- 87
2018-04-25 06:00:00 7.5 7 Noroeste 10 Noroeste 0 -- -- 84
2018-04-25 05:00:00 7.7 0 Calma 4 Noroeste 0 -- -- 83
2018-04-25 04:00:00 8.5 3 Nordeste 6 Sur 0 -- -- 80
2018-04-25 03:00:00 8.3 4 Sur 6 Sur 0 -- -- 81
2018-04-25 02:00:00 9.9 2 Noroeste 8 Sudoeste 0 -- -- 78
2018-04-25 01:00:00 10.5 0 Calma 6 Sudoeste 0 -- -- 76
2018-04-25 00:00:00 13 0 Calma 14 Sudeste 0 -- -- 68